sensor_id;sensor_type;location;lat;lon;timestamp;pressure;altitude;pressure_sealevel;temperature;humidity
50065;BME280;64524;47.848;-122.338;2023-03-18T00:02:12;101637.55;;;12.73;100.00
50065;BME280;64524;47.848;-122.338;2023-03-18T00:04:41;101636.52;;;12.72;100.00
50065;BME280;64524;47.848;-122.338;2023-03-18T00:07:11;101635.98;;;12.72;100.00
50065;BME280;64524;47.848;-122.338;2023-03-18T00:09:40;101633.34;;;12.70;100.00
50065;BME280;64524;47.848;-122.338;2023-03-18T00:12:08;101628.63;;;12.69;100.00
50065;BME280;64524;47.848;-122.338;2023-03-18T00:14:37;101627.55;;;12.67;100.00
50065;BME280;64524;47.848;-122.338;2023-03-18T00:17:06;101626.51;;;12.66;100.00
50065;BME280;64524;47.848;-122.338;2023-03-18T00:19:35;101627.70;;;12.66;100.00
50065;BME280;64524;47.848;-122.338;2023-03-18T00:22:06;101622.48;;;12.65;100.00
50065;BME280;64524;47.848;-122.338;2023-03-18T00:24:37;101625.56;;;12.63;100.00
50065;BME280;64524;47.848;-122.338;2023-03-18T00:27:06;101624.50;;;12.61;100.00
50065;BME280;64524;47.848;-122.338;2023-03-18T00:29:42;101625.34;;;12.60;100.00
50065;BME280;64524;47.848;-122.338;2023-03-18T00:32:13;101623.56;;;12.58;100.00
50065;BME280;64524;47.848;-122.338;2023-03-18T00:34:46;101623.39;;;12.57;100.00
50065;BME280;64524;47.848;-122.338;2023-03-18T00:37:26;101625.79;;;12.56;100.00
50065;BME280;64524;47.848;-122.338;2023-03-18T00:40:06;101627.17;;;12.55;100.00
50065;BME280;64524;47.848;-122.338;2023-03-18T00:42:44;101626.42;;;12.53;100.00
50065;BME280;64524;47.848;-122.338;2023-03-18T00:45:20;101627.42;;;12.50;100.00
50065;BME280;64524;47.848;-122.338;2023-03-18T00:51:03;101630.31;;;12.46;100.00
50065;BME280;64524;47.848;-122.338;2023-03-18T00:53:44;101629.20;;;12.43;100.00
50065;BME280;64524;47.848;-122.338;2023-03-18T00:56:35;101634.37;;;12.40;100.00
50065;BME280;64524;47.848;-122.338;2023-03-18T00:59:09;101636.90;;;12.37;100.00
50065;BME280;64524;47.848;-122.338;2023-03-18T01:01:42;101640.85;;;12.34;100.00
50065;BME280;64524;47.848;-122.338;2023-03-18T01:04:13;101640.58;;;12.29;100.00
50065;BME280;64524;47.848;-122.338;2023-03-18T01:06:44;101647.05;;;12.22;100.00
50065;BME280;64524;47.848;-122.338;2023-03-18T01:09:13;101645.69;;;12.15;100.00
50065;BME280;64524;47.848;-122.338;2023-03-18T01:11:46;101647.85;;;12.10;100.00
50065;BME280;64524;47.848;-122.338;2023-03-18T01:14:21;101644.59;;;12.03;100.00
50065;BME280;64524;47.848;-122.338;2023-03-18T01:16:50;101645.52;;;11.98;100.00
50065;BME280;64524;47.848;-122.338;2023-03-18T01:19:22;101645.77;;;11.93;100.00
50065;BME280;64524;47.848;-122.338;2023-03-18T01:22:03;101643.89;;;11.88;100.00
50065;BME280;64524;47.848;-122.338;2023-03-18T01:24:34;101639.94;;;11.82;100.00
50065;BME280;64524;47.848;-122.338;2023-03-18T01:27:06;101643.15;;;11.78;100.00
50065;BME280;64524;47.848;-122.338;2023-03-18T01:29:36;101645.65;;;11.73;100.00
50065;BME280;64524;47.848;-122.338;2023-03-18T01:32:05;101641.23;;;11.69;100.00
50065;BME280;64524;47.848;-122.338;2023-03-18T01:34:47;101643.56;;;11.65;100.00
50065;BME280;64524;47.848;-122.338;2023-03-18T01:37:15;101641.73;;;11.61;100.00
50065;BME280;64524;47.848;-122.338;2023-03-18T01:39:45;101641.80;;;11.56;100.00
50065;BME280;64524;47.848;-122.338;2023-03-18T01:42:14;101634.91;;;11.50;100.00
50065;BME280;64524;47.848;-122.338;2023-03-18T01:44:48;101640.36;;;11.46;100.00
50065;BME280;64524;47.848;-122.338;2023-03-18T01:47:17;101637.14;;;11.42;100.00
50065;BME280;64524;47.848;-122.338;2023-03-18T01:49:49;101640.34;;;11.37;100.00
50065;BME280;64524;47.848;-122.338;2023-03-18T01:52:25;101638.30;;;11.31;100.00
50065;BME280;64524;47.848;-122.338;2023-03-18T01:55:14;101636.77;;;11.26;100.00
50065;BME280;64524;47.848;-122.338;2023-03-18T01:57:47;101636.08;;;11.19;100.00
50065;BME280;64524;47.848;-122.338;2023-03-18T02:00:18;101634.20;;;11.13;100.00
50065;BME280;64524;47.848;-122.338;2023-03-18T02:02:54;101637.02;;;11.07;100.00
50065;BME280;64524;47.848;-122.338;2023-03-18T02:05:26;101633.56;;;11.01;100.00
50065;BME280;64524;47.848;-122.338;2023-03-18T02:07:56;101633.27;;;10.95;100.00
50065;BME280;64524;47.848;-122.338;2023-03-18T02:10:27;101632.48;;;10.92;100.00
50065;BME280;64524;47.848;-122.338;2023-03-18T02:13:14;101634.31;;;10.89;100.00
50065;BME280;64524;47.848;-122.338;2023-03-18T02:16:00;101632.30;;;10.84;100.00
50065;BME280;64524;47.848;-122.338;2023-03-18T02:18:47;101634.11;;;10.81;100.00
50065;BME280;64524;47.848;-122.338;2023-03-18T02:21:55;101633.66;;;10.76;100.00
50065;BME280;64524;47.848;-122.338;2023-03-18T02:27:29;101629.95;;;10.67;100.00
50065;BME280;64524;47.848;-122.338;2023-03-18T02:30:17;101637.75;;;10.60;100.00
50065;BME280;64524;47.848;-122.338;2023-03-18T02:32:50;101643.83;;;10.55;100.00
50065;BME280;64524;47.848;-122.338;2023-03-18T02:35:22;101642.55;;;10.52;100.00
50065;BME280;64524;47.848;-122.338;2023-03-18T02:38:12;101647.08;;;10.52;100.00
50065;BME280;64524;47.848;-122.338;2023-03-18T02:40:46;101649.72;;;10.54;100.00
50065;BME280;64524;47.848;-122.338;2023-03-18T02:43:31;101656.31;;;10.55;100.00
50065;BME280;64524;47.848;-122.338;2023-03-18T02:49:43;101670.00;;;10.55;100.00
50065;BME280;64524;47.848;-122.338;2023-03-18T02:52:44;101672.13;;;10.57;100.00
50065;BME280;64524;47.848;-122.338;2023-03-18T02:55:13;101670.42;;;10.58;100.00
50065;BME280;64524;47.848;-122.338;2023-03-18T02:57:45;101670.25;;;10.58;100.00
50065;BME280;64524;47.848;-122.338;2023-03-18T03:00:14;101669.44;;;10.54;100.00
50065;BME280;64524;47.848;-122.338;2023-03-18T03:02:52;101672.09;;;10.49;100.00
50065;BME280;64524;47.848;-122.338;2023-03-18T03:05:25;101669.15;;;10.43;100.00
50065;BME280;64524;47.848;-122.338;2023-03-18T03:07:54;101668.50;;;10.38;100.00
50065;BME280;64524;47.848;-122.338;2023-03-18T03:13:39;101674.31;;;10.30;100.00
50065;BME280;64524;47.848;-122.338;2023-03-18T03:16:28;101683.76;;;10.21;100.00
50065;BME280;64524;47.848;-122.338;2023-03-18T03:19:12;101693.55;;;10.07;100.00
50065;BME280;64524;47.848;-122.338;2023-03-18T03:21:44;101693.11;;;9.92;100.00
50065;BME280;64524;47.848;-122.338;2023-03-18T03:24:42;101690.39;;;9.82;100.00
50065;BME280;64524;47.848;-122.338;2023-03-18T03:27:18;101699.24;;;9.72;100.00
50065;BME280;64524;47.848;-122.338;2023-03-18T03:29:47;101693.67;;;9.59;100.00
50065;BME280;64524;47.848;-122.338;2023-03-18T03:32:29;101697.48;;;9.49;100.00
50065;BME280;64524;47.848;-122.338;2023-03-18T03:38:44;101706.01;;;9.23;100.00
50065;BME280;64524;47.848;-122.338;2023-03-18T03:41:47;101712.14;;;9.15;100.00
50065;BME280;64524;47.848;-122.338;2023-03-18T03:44:29;101715.89;;;9.09;100.00
50065;BME280;64524;47.848;-122.338;2023-03-18T03:56:16;101700.37;;;8.84;100.00
50065;BME280;64524;47.848;-122.338;2023-03-18T03:58:51;101703.52;;;8.80;100.00
50065;BME280;64524;47.848;-122.338;2023-03-18T04:01:32;101704.75;;;8.76;100.00
50065;BME280;64524;47.848;-122.338;2023-03-18T04:04:24;101703.27;;;8.73;100.00
50065;BME280;64524;47.848;-122.338;2023-03-18T04:07:26;101704.27;;;8.72;100.00
50065;BME280;64524;47.848;-122.338;2023-03-18T04:10:05;101706.28;;;8.70;100.00
50065;BME280;64524;47.848;-122.338;2023-03-18T04:15:36;101707.83;;;8.65;100.00
50065;BME280;64524;47.848;-122.338;2023-03-18T04:18:08;101710.15;;;8.62;100.00
50065;BME280;64524;47.848;-122.338;2023-03-18T04:20:40;101710.80;;;8.60;100.00
50065;BME280;64524;47.848;-122.338;2023-03-18T04:23:28;101715.94;;;8.60;100.00
50065;BME280;64524;47.848;-122.338;2023-03-18T04:26:11;101716.27;;;8.59;100.00
50065;BME280;64524;47.848;-122.338;2023-03-18T04:28:43;101726.11;;;8.59;100.00
50065;BME280;64524;47.848;-122.338;2023-03-18T04:31:17;101725.38;;;8.58;100.00
50065;BME280;64524;47.848;-122.338;2023-03-18T04:34:11;101726.30;;;8.55;100.00
50065;BME280;64524;47.848;-122.338;2023-03-18T04:36:43;101719.45;;;8.52;100.00
50065;BME280;64524;47.848;-122.338;2023-03-18T04:40:03;101720.44;;;8.51;100.00
50065;BME280;64524;47.848;-122.338;2023-03-18T04:46:35;101725.11;;;8.51;100.00
50065;BME280;64524;47.848;-122.338;2023-03-18T04:49:04;101721.98;;;8.55;100.00
50065;BME280;64524;47.848;-122.338;2023-03-18T04:51:58;101721.00;;;8.56;100.00
50065;BME280;64524;47.848;-122.338;2023-03-18T04:54:32;101727.83;;;8.55;100.00
50065;BME280;64524;47.848;-122.338;2023-03-18T04:57:22;101727.76;;;8.52;100.00
50065;BME280;64524;47.848;-122.338;2023-03-18T04:59:52;101727.34;;;8.51;100.00
50065;BME280;64524;47.848;-122.338;2023-03-18T05:02:26;101731.66;;;8.51;100.00
50065;BME280;64524;47.848;-122.338;2023-03-18T05:05:06;101729.76;;;8.51;100.00
50065;BME280;64524;47.848;-122.338;2023-03-18T05:07:39;101728.74;;;8.51;100.00
50065;BME280;64524;47.848;-122.338;2023-03-18T05:10:19;101730.42;;;8.50;100.00
50065;BME280;64524;47.848;-122.338;2023-03-18T05:13:17;101727.49;;;8.50;100.00
50065;BME280;64524;47.848;-122.338;2023-03-18T05:15:54;101730.19;;;8.53;100.00
50065;BME280;64524;47.848;-122.338;2023-03-18T05:18:23;101728.11;;;8.53;100.00
50065;BME280;64524;47.848;-122.338;2023-03-18T05:20:51;101729.45;;;8.52;100.00
50065;BME280;64524;47.848;-122.338;2023-03-18T05:23:32;101732.49;;;8.50;100.00
50065;BME280;64524;47.848;-122.338;2023-03-18T05:26:15;101732.40;;;8.48;100.00
50065;BME280;64524;47.848;-122.338;2023-03-18T05:28:44;101728.02;;;8.45;100.00
50065;BME280;64524;47.848;-122.338;2023-03-18T05:31:22;101728.46;;;8.44;100.00
50065;BME280;64524;47.848;-122.338;2023-03-18T05:34:13;101730.19;;;8.43;100.00
50065;BME280;64524;47.848;-122.338;2023-03-18T05:36:43;101728.89;;;8.41;100.00
50065;BME280;64524;47.848;-122.338;2023-03-18T05:39:20;101728.16;;;8.40;100.00
50065;BME280;64524;47.848;-122.338;2023-03-18T05:42:35;101731.06;;;8.40;100.00
50065;BME280;64524;47.848;-122.338;2023-03-18T05:48:25;101726.92;;;8.35;100.00
50065;BME280;64524;47.848;-122.338;2023-03-18T05:51:06;101724.94;;;8.33;100.00
50065;BME280;64524;47.848;-122.338;2023-03-18T05:53:42;101721.82;;;8.32;100.00
50065;BME280;64524;47.848;-122.338;2023-03-18T05:58:51;101714.59;;;8.33;100.00
50065;BME280;64524;47.848;-122.338;2023-03-18T06:01:34;101717.05;;;8.34;100.00
50065;BME280;64524;47.848;-122.338;2023-03-18T06:04:03;101726.67;;;8.38;100.00
50065;BME280;64524;47.848;-122.338;2023-03-18T06:06:34;101730.89;;;8.43;100.00
50065;BME280;64524;47.848;-122.338;2023-03-18T06:09:30;101733.11;;;8.48;100.00
50065;BME280;64524;47.848;-122.338;2023-03-18T06:12:01;101731.56;;;8.48;100.00
50065;BME280;64524;47.848;-122.338;2023-03-18T06:14:49;101734.86;;;8.49;100.00
50065;BME280;64524;47.848;-122.338;2023-03-18T06:17:23;101734.26;;;8.46;100.00
50065;BME280;64524;47.848;-122.338;2023-03-18T06:19:52;101738.32;;;8.44;100.00
50065;BME280;64524;47.848;-122.338;2023-03-18T06:23:08;101738.55;;;8.41;100.00
50065;BME280;64524;47.848;-122.338;2023-03-18T06:25:51;101742.02;;;8.41;100.00
50065;BME280;64524;47.848;-122.338;2023-03-18T06:31:46;101742.59;;;8.38;100.00
50065;BME280;64524;47.848;-122.338;2023-03-18T06:40:44;101738.14;;;8.26;100.00
50065;BME280;64524;47.848;-122.338;2023-03-18T06:43:16;101731.44;;;8.22;100.00
50065;BME280;64524;47.848;-122.338;2023-03-18T06:45:54;101729.59;;;8.19;100.00
50065;BME280;64524;47.848;-122.338;2023-03-18T06:48:29;101731.98;;;8.13;100.00
50065;BME280;64524;47.848;-122.338;2023-03-18T06:50:59;101732.80;;;8.07;100.00
50065;BME280;64524;47.848;-122.338;2023-03-18T06:53:28;101734.29;;;8.02;100.00
50065;BME280;64524;47.848;-122.338;2023-03-18T06:56:03;101738.04;;;7.96;100.00
50065;BME280;64524;47.848;-122.338;2023-03-18T06:58:43;101736.22;;;7.89;100.00
50065;BME280;64524;47.848;-122.338;2023-03-18T07:24:46;101730.37;;;7.42;100.00
50065;BME280;64524;47.848;-122.338;2023-03-18T07:27:46;101732.83;;;7.38;100.00
50065;BME280;64524;47.848;-122.338;2023-03-18T07:47:45;101733.02;;;7.26;100.00
50065;BME280;64524;47.848;-122.338;2023-03-18T08:00:55;101734.30;;;7.16;100.00
50065;BME280;64524;47.848;-122.338;2023-03-18T08:07:39;101732.44;;;7.12;100.00
50065;BME280;64524;47.848;-122.338;2023-03-18T08:48:38;101715.63;;;6.93;100.00
50065;BME280;64524;47.848;-122.338;2023-03-18T08:51:50;101713.47;;;6.91;100.00
50065;BME280;64524;47.848;-122.338;2023-03-18T08:58:17;101712.80;;;6.88;100.00
50065;BME280;64524;47.848;-122.338;2023-03-18T09:01:20;101712.15;;;6.84;100.00
50065;BME280;64524;47.848;-122.338;2023-03-18T09:04:36;101717.59;;;6.83;100.00
50065;BME280;64524;47.848;-122.338;2023-03-18T09:08:08;101717.02;;;6.81;100.00
50065;BME280;64524;47.848;-122.338;2023-03-18T09:21:37;101721.84;;;6.78;100.00
50065;BME280;64524;47.848;-122.338;2023-03-18T10:09:18;101712.14;;;6.57;100.00
50065;BME280;64524;47.848;-122.338;2023-03-18T10:11:58;101708.27;;;6.59;100.00
50065;BME280;64524;47.848;-122.338;2023-03-18T10:17:31;101714.79;;;6.58;100.00
50065;BME280;64524;47.848;-122.338;2023-03-18T10:20:36;101713.50;;;6.56;100.00
50065;BME280;64524;47.848;-122.338;2023-03-18T10:43:22;101701.67;;;6.30;100.00
50065;BME280;64524;47.848;-122.338;2023-03-18T10:46:10;101700.67;;;6.27;100.00
50065;BME280;64524;47.848;-122.338;2023-03-18T10:56:59;101712.30;;;6.28;100.00
50065;BME280;64524;47.848;-122.338;2023-03-18T11:00:48;101710.52;;;6.27;100.00
50065;BME280;64524;47.848;-122.338;2023-03-18T11:07:20;101695.98;;;6.18;100.00
50065;BME280;64524;47.848;-122.338;2023-03-18T11:17:48;101678.59;;;6.06;100.00
50065;BME280;64524;47.848;-122.338;2023-03-18T11:20:51;101675.61;;;6.05;100.00
50065;BME280;64524;47.848;-122.338;2023-03-18T11:41:17;101669.96;;;5.95;100.00
50065;BME280;64524;47.848;-122.338;2023-03-18T12:12:07;101674.75;;;5.72;100.00
50065;BME280;64524;47.848;-122.338;2023-03-18T12:19:01;101669.69;;;5.70;100.00
50065;BME280;64524;47.848;-122.338;2023-03-18T12:21:56;101668.73;;;5.72;100.00
50065;BME280;64524;47.848;-122.338;2023-03-18T13:04:35;101673.40;;;5.58;100.00
50065;BME280;64524;47.848;-122.338;2023-03-18T13:51:50;101683.70;;;5.18;100.00
50065;BME280;64524;47.848;-122.338;2023-03-18T13:55:46;101684.56;;;5.11;100.00
50065;BME280;64524;47.848;-122.338;2023-03-18T13:58:21;101680.77;;;5.04;100.00
50065;BME280;64524;47.848;-122.338;2023-03-18T14:04:53;101679.78;;;4.91;100.00
50065;BME280;64524;47.848;-122.338;2023-03-18T14:10:48;101688.97;;;4.83;100.00
50065;BME280;64524;47.848;-122.338;2023-03-18T14:13:46;101688.99;;;4.83;100.00
50065;BME280;64524;47.848;-122.338;2023-03-18T14:17:47;101688.28;;;4.83;100.00
50065;BME280;64524;47.848;-122.338;2023-03-18T14:24:22;101679.28;;;4.74;100.00
50065;BME280;64524;47.848;-122.338;2023-03-18T14:27:18;101670.19;;;4.70;100.00
50065;BME280;64524;47.848;-122.338;2023-03-18T14:45:51;101652.60;;;4.66;100.00
50065;BME280;64524;47.848;-122.338;2023-03-18T14:48:31;101653.00;;;4.67;100.00
50065;BME280;64524;47.848;-122.338;2023-03-18T14:54:46;101651.73;;;4.66;100.00
50065;BME280;64524;47.848;-122.338;2023-03-18T15:05:03;101651.20;;;4.72;100.00
50065;BME280;64524;47.848;-122.338;2023-03-18T15:15:32;101645.59;;;4.77;100.00
50065;BME280;64524;47.848;-122.338;2023-03-18T15:28:35;101636.18;;;4.80;100.00
50065;BME280;64524;47.848;-122.338;2023-03-18T15:34:54;101636.08;;;4.89;100.00
50065;BME280;64524;47.848;-122.338;2023-03-18T15:38:05;101637.45;;;4.93;100.00
50065;BME280;64524;47.848;-122.338;2023-03-18T15:47:53;101636.10;;;5.00;100.00
50065;BME280;64524;47.848;-122.338;2023-03-18T15:54:43;101630.42;;;5.07;100.00
50065;BME280;64524;47.848;-122.338;2023-03-18T15:58:01;101626.44;;;5.13;100.00
50065;BME280;64524;47.848;-122.338;2023-03-18T16:01:08;101627.60;;;5.20;100.00
50065;BME280;64524;47.848;-122.338;2023-03-18T16:10:53;101631.69;;;5.44;100.00
50065;BME280;64524;47.848;-122.338;2023-03-18T16:13:44;101625.35;;;5.48;100.00
50065;BME280;64524;47.848;-122.338;2023-03-18T16:33:26;101605.34;;;6.03;100.00
50065;BME280;64524;47.848;-122.338;2023-03-18T16:36:36;101603.92;;;6.14;100.00
50065;BME280;64524;47.848;-122.338;2023-03-18T16:39:41;101601.54;;;6.22;100.00
50065;BME280;64524;47.848;-122.338;2023-03-18T17:16:46;101604.88;;;6.94;100.00
50065;BME280;64524;47.848;-122.338;2023-03-18T17:19:35;101601.10;;;6.98;100.00
50065;BME280;64524;47.848;-122.338;2023-03-18T17:22:19;101603.18;;;7.02;100.00
50065;BME280;64524;47.848;-122.338;2023-03-18T17:24:54;101607.98;;;7.07;100.00
50065;BME280;64524;47.848;-122.338;2023-03-18T17:27:31;101613.52;;;7.11;100.00
50065;BME280;64524;47.848;-122.338;2023-03-18T17:30:15;101611.42;;;7.15;100.00
50065;BME280;64524;47.848;-122.338;2023-03-18T17:32:48;101608.10;;;7.18;100.00
50065;BME280;64524;47.848;-122.338;2023-03-18T17:38:52;101611.63;;;7.25;100.00
50065;BME280;64524;47.848;-122.338;2023-03-18T17:41:38;101609.70;;;7.28;100.00
50065;BME280;64524;47.848;-122.338;2023-03-18T17:48:26;101597.16;;;7.38;100.00
50065;BME280;64524;47.848;-122.338;2023-03-18T17:51:12;101590.29;;;7.43;100.00
50065;BME280;64524;47.848;-122.338;2023-03-18T17:54:08;101587.36;;;7.48;100.00
50065;BME280;64524;47.848;-122.338;2023-03-18T17:56:54;101582.19;;;7.52;100.00
50065;BME280;64524;47.848;-122.338;2023-03-18T18:03:08;101568.86;;;7.64;100.00
50065;BME280;64524;47.848;-122.338;2023-03-18T18:06:05;101559.08;;;7.71;100.00
50065;BME280;64524;47.848;-122.338;2023-03-18T18:11:48;101556.98;;;7.79;100.00
50065;BME280;64524;47.848;-122.338;2023-03-18T18:18:48;101557.83;;;7.88;100.00
50065;BME280;64524;47.848;-122.338;2023-03-18T18:22:41;101552.18;;;7.95;100.00
50065;BME280;64524;47.848;-122.338;2023-03-18T18:25:27;101548.44;;;8.01;100.00
50065;BME280;64524;47.848;-122.338;2023-03-18T18:28:18;101548.67;;;8.07;100.00
50065;BME280;64524;47.848;-122.338;2023-03-18T18:31:31;101548.39;;;8.14;100.00
50065;BME280;64524;47.848;-122.338;2023-03-18T18:34:28;101547.77;;;8.21;100.00
50065;BME280;64524;47.848;-122.338;2023-03-18T18:37:00;101544.19;;;8.27;100.00
50065;BME280;64524;47.848;-122.338;2023-03-18T18:40:10;101539.51;;;8.33;100.00
50065;BME280;64524;47.848;-122.338;2023-03-18T18:43:18;101539.80;;;8.40;100.00
50065;BME280;64524;47.848;-122.338;2023-03-18T18:46:16;101537.64;;;8.47;100.00
50065;BME280;64524;47.848;-122.338;2023-03-18T18:52:51;101536.95;;;8.63;100.00
50065;BME280;64524;47.848;-122.338;2023-03-18T18:58:48;101537.54;;;8.81;100.00
50065;BME280;64524;47.848;-122.338;2023-03-18T19:11:38;101521.55;;;9.17;100.00
50065;BME280;64524;47.848;-122.338;2023-03-18T19:21:22;101508.36;;;9.39;100.00
50065;BME280;64524;47.848;-122.338;2023-03-18T19:39:02;101497.80;;;9.69;100.00
50065;BME280;64524;47.848;-122.338;2023-03-18T19:45:39;101496.88;;;9.79;100.00
50065;BME280;64524;47.848;-122.338;2023-03-18T19:49:01;101492.69;;;9.85;100.00
50065;BME280;64524;47.848;-122.338;2023-03-18T19:55:31;101479.27;;;9.94;100.00
50065;BME280;64524;47.848;-122.338;2023-03-18T19:58:40;101470.34;;;9.97;100.00
50065;BME280;64524;47.848;-122.338;2023-03-18T20:08:36;101436.58;;;10.10;100.00
50065;BME280;64524;47.848;-122.338;2023-03-18T20:32:19;101397.77;;;10.50;100.00
50065;BME280;64524;47.848;-122.338;2023-03-18T20:35:21;101402.90;;;10.56;100.00
50065;BME280;64524;47.848;-122.338;2023-03-18T20:41:56;101384.09;;;10.67;100.00
50065;BME280;64524;47.848;-122.338;2023-03-18T21:03:01;101335.10;;;11.03;100.00
50065;BME280;64524;47.848;-122.338;2023-03-18T21:09:31;101318.71;;;11.16;100.00
50065;BME280;64524;47.848;-122.338;2023-03-18T21:16:31;101307.30;;;11.27;100.00
50065;BME280;64524;47.848;-122.338;2023-03-18T21:26:31;101282.80;;;11.44;100.00
50065;BME280;64524;47.848;-122.338;2023-03-18T21:30:08;101273.20;;;11.51;100.00
50065;BME280;64524;47.848;-122.338;2023-03-18T21:36:47;101264.08;;;11.67;100.00
50065;BME280;64524;47.848;-122.338;2023-03-18T21:40:13;101256.25;;;11.77;100.00
50065;BME280;64524;47.848;-122.338;2023-03-18T21:47:11;101255.10;;;12.01;100.00
50065;BME280;64524;47.848;-122.338;2023-03-18T22:10:31;101231.60;;;12.51;100.00
50065;BME280;64524;47.848;-122.338;2023-03-18T22:40:48;101217.44;;;13.08;100.00
50065;BME280;64524;47.848;-122.338;2023-03-18T22:47:01;101214.29;;;13.22;100.00
50065;BME280;64524;47.848;-122.338;2023-03-18T22:56:45;101196.54;;;13.41;100.00
50065;BME280;64524;47.848;-122.338;2023-03-18T23:17:01;101176.77;;;13.77;100.00
50065;BME280;64524;47.848;-122.338;2023-03-18T23:23:18;101172.52;;;13.94;100.00
50065;BME280;64524;47.848;-122.338;2023-03-18T23:26:37;101173.08;;;14.02;100.00
50065;BME280;64524;47.848;-122.338;2023-03-18T23:29:35;101168.58;;;14.09;100.00
50065;BME280;64524;47.848;-122.338;2023-03-18T23:49:32;101148.48;;;14.38;100.00
50065;BME280;64524;47.848;-122.338;2023-03-18T23:52:38;101148.14;;;14.42;100.00
50065;BME280;64524;47.848;-122.338;2023-03-18T23:59:09;101144.14;;;14.48;100.00
